sensor_id;sensor_type;location;lat;lon;timestamp;P1;durP1;ratioP1;P2;durP2;ratioP2
18104;SDS011;9179;50.968;3.134;2023-07-09T00:01:41;41.55;;;37.38;;
18104;SDS011;9179;50.968;3.134;2023-07-09T00:04:10;41.47;;;37.60;;
18104;SDS011;9179;50.968;3.134;2023-07-09T00:06:37;41.67;;;37.35;;
18104;SDS011;9179;50.968;3.134;2023-07-09T00:09:04;39.33;;;35.35;;
18104;SDS011;9179;50.968;3.134;2023-07-09T00:11:32;41.17;;;37.22;;
18104;SDS011;9179;50.968;3.134;2023-07-09T00:13:59;40.60;;;36.60;;
18104;SDS011;9179;50.968;3.134;2023-07-09T00:16:26;40.20;;;36.20;;
18104;SDS011;9179;50.968;3.134;2023-07-09T00:18:53;38.83;;;35.03;;
18104;SDS011;9179;50.968;3.134;2023-07-09T00:21:21;37.90;;;34.17;;
18104;SDS011;9179;50.968;3.134;2023-07-09T00:23:48;36.13;;;32.65;;
18104;SDS011;9179;50.968;3.134;2023-07-09T00:26:16;37.22;;;33.63;;
18104;SDS011;9179;50.968;3.134;2023-07-09T00:28:48;38.08;;;34.38;;
18104;SDS011;9179;50.968;3.134;2023-07-09T00:31:16;35.08;;;31.65;;
18104;SDS011;9179;50.968;3.134;2023-07-09T00:33:43;36.00;;;32.45;;
18104;SDS011;9179;50.968;3.134;2023-07-09T00:36:11;37.70;;;33.80;;
18104;SDS011;9179;50.968;3.134;2023-07-09T00:38:43;35.65;;;32.22;;
18104;SDS011;9179;50.968;3.134;2023-07-09T00:41:13;37.10;;;33.45;;
18104;SDS011;9179;50.968;3.134;2023-07-09T00:43:42;35.80;;;32.13;;
18104;SDS011;9179;50.968;3.134;2023-07-09T00:46:14;36.50;;;32.70;;
18104;SDS011;9179;50.968;3.134;2023-07-09T00:48:56;35.63;;;31.88;;
18104;SDS011;9179;50.968;3.134;2023-07-09T00:51:30;33.70;;;30.48;;
18104;SDS011;9179;50.968;3.134;2023-07-09T00:54:01;36.50;;;32.83;;
18104;SDS011;9179;50.968;3.134;2023-07-09T00:56:36;37.33;;;33.33;;
18104;SDS011;9179;50.968;3.134;2023-07-09T00:59:07;36.35;;;32.42;;
18104;SDS011;9179;50.968;3.134;2023-07-09T01:01:38;36.85;;;33.00;;
18104;SDS011;9179;50.968;3.134;2023-07-09T01:04:06;36.65;;;32.85;;
18104;SDS011;9179;50.968;3.134;2023-07-09T01:06:35;38.20;;;34.30;;
18104;SDS011;9179;50.968;3.134;2023-07-09T01:09:05;36.33;;;32.67;;
18104;SDS011;9179;50.968;3.134;2023-07-09T01:11:33;38.90;;;35.10;;
18104;SDS011;9179;50.968;3.134;2023-07-09T01:14:03;38.13;;;34.38;;
18104;SDS011;9179;50.968;3.134;2023-07-09T01:16:34;38.75;;;34.85;;
18104;SDS011;9179;50.968;3.134;2023-07-09T01:19:03;39.25;;;35.15;;
18104;SDS011;9179;50.968;3.134;2023-07-09T01:21:32;41.80;;;37.63;;
18104;SDS011;9179;50.968;3.134;2023-07-09T01:24:10;39.00;;;35.15;;
18104;SDS011;9179;50.968;3.134;2023-07-09T01:26:39;40.20;;;36.10;;
18104;SDS011;9179;50.968;3.134;2023-07-09T01:29:08;39.70;;;35.60;;
18104;SDS011;9179;50.968;3.134;2023-07-09T01:31:35;39.63;;;35.63;;
18104;SDS011;9179;50.968;3.134;2023-07-09T01:34:02;40.17;;;36.20;;
18104;SDS011;9179;50.968;3.134;2023-07-09T01:36:32;40.40;;;36.28;;
18104;SDS011;9179;50.968;3.134;2023-07-09T01:39:00;39.28;;;35.15;;
18104;SDS011;9179;50.968;3.134;2023-07-09T01:41:27;39.58;;;35.72;;
18104;SDS011;9179;50.968;3.134;2023-07-09T01:43:55;39.13;;;35.20;;
18104;SDS011;9179;50.968;3.134;2023-07-09T01:46:22;35.53;;;31.83;;
18104;SDS011;9179;50.968;3.134;2023-07-09T01:48:49;36.53;;;32.75;;
18104;SDS011;9179;50.968;3.134;2023-07-09T01:51:18;35.55;;;31.88;;
18104;SDS011;9179;50.968;3.134;2023-07-09T01:53:46;36.35;;;32.45;;
18104;SDS011;9179;50.968;3.134;2023-07-09T01:56:13;33.88;;;30.60;;
18104;SDS011;9179;50.968;3.134;2023-07-09T01:58:39;34.90;;;31.63;;
18104;SDS011;9179;50.968;3.134;2023-07-09T02:01:07;32.65;;;29.25;;
18104;SDS011;9179;50.968;3.134;2023-07-09T02:03:34;34.05;;;30.52;;
18104;SDS011;9179;50.968;3.134;2023-07-09T02:06:01;32.00;;;28.63;;
18104;SDS011;9179;50.968;3.134;2023-07-09T02:08:34;32.53;;;29.30;;
18104;SDS011;9179;50.968;3.134;2023-07-09T02:11:02;32.28;;;29.08;;
18104;SDS011;9179;50.968;3.134;2023-07-09T02:13:29;31.38;;;28.20;;
18104;SDS011;9179;50.968;3.134;2023-07-09T02:15:56;32.22;;;29.15;;
18104;SDS011;9179;50.968;3.134;2023-07-09T02:18:23;33.22;;;29.92;;
18104;SDS011;9179;50.968;3.134;2023-07-09T02:20:50;33.38;;;30.05;;
18104;SDS011;9179;50.968;3.134;2023-07-09T02:23:16;32.05;;;28.63;;
18104;SDS011;9179;50.968;3.134;2023-07-09T02:25:43;33.22;;;29.70;;
18104;SDS011;9179;50.968;3.134;2023-07-09T02:28:12;33.72;;;30.20;;
18104;SDS011;9179;50.968;3.134;2023-07-09T02:30:38;34.50;;;30.98;;
18104;SDS011;9179;50.968;3.134;2023-07-09T02:33:06;32.30;;;28.92;;
18104;SDS011;9179;50.968;3.134;2023-07-09T02:35:32;33.70;;;30.20;;
18104;SDS011;9179;50.968;3.134;2023-07-09T02:38:00;33.53;;;30.38;;
18104;SDS011;9179;50.968;3.134;2023-07-09T02:40:27;31.33;;;28.13;;
18104;SDS011;9179;50.968;3.134;2023-07-09T02:42:54;30.98;;;27.67;;
18104;SDS011;9179;50.968;3.134;2023-07-09T02:45:23;29.83;;;26.88;;
18104;SDS011;9179;50.968;3.134;2023-07-09T02:47:50;33.35;;;30.00;;
18104;SDS011;9179;50.968;3.134;2023-07-09T02:50:16;34.60;;;29.27;;
18104;SDS011;9179;50.968;3.134;2023-07-09T02:52:43;31.90;;;28.77;;
18104;SDS011;9179;50.968;3.134;2023-07-09T02:55:10;32.45;;;28.48;;
18104;SDS011;9179;50.968;3.134;2023-07-09T02:57:37;31.83;;;28.45;;
18104;SDS011;9179;50.968;3.134;2023-07-09T03:00:05;32.58;;;29.33;;
18104;SDS011;9179;50.968;3.134;2023-07-09T03:02:34;32.97;;;29.30;;
18104;SDS011;9179;50.968;3.134;2023-07-09T03:05:01;34.08;;;30.48;;
18104;SDS011;9179;50.968;3.134;2023-07-09T03:07:28;32.90;;;28.58;;
18104;SDS011;9179;50.968;3.134;2023-07-09T03:09:55;32.90;;;29.23;;
18104;SDS011;9179;50.968;3.134;2023-07-09T03:12:22;33.00;;;29.70;;
18104;SDS011;9179;50.968;3.134;2023-07-09T03:14:49;32.05;;;28.88;;
18104;SDS011;9179;50.968;3.134;2023-07-09T03:17:16;33.83;;;30.30;;
18104;SDS011;9179;50.968;3.134;2023-07-09T03:19:44;31.00;;;27.95;;
18104;SDS011;9179;50.968;3.134;2023-07-09T03:22:11;31.33;;;28.33;;
18104;SDS011;9179;50.968;3.134;2023-07-09T03:24:38;30.63;;;27.42;;
18104;SDS011;9179;50.968;3.134;2023-07-09T03:27:05;32.00;;;28.70;;
18104;SDS011;9179;50.968;3.134;2023-07-09T03:29:33;32.92;;;29.70;;
18104;SDS011;9179;50.968;3.134;2023-07-09T03:32:00;34.15;;;30.90;;
18104;SDS011;9179;50.968;3.134;2023-07-09T03:34:26;35.10;;;31.48;;
18104;SDS011;9179;50.968;3.134;2023-07-09T03:36:55;38.67;;;34.88;;
18104;SDS011;9179;50.968;3.134;2023-07-09T03:39:21;35.10;;;31.50;;
18104;SDS011;9179;50.968;3.134;2023-07-09T03:41:48;36.40;;;32.80;;
18104;SDS011;9179;50.968;3.134;2023-07-09T03:44:15;37.65;;;34.03;;
18104;SDS011;9179;50.968;3.134;2023-07-09T03:46:42;40.17;;;35.90;;
18104;SDS011;9179;50.968;3.134;2023-07-09T03:49:09;40.28;;;36.17;;
18104;SDS011;9179;50.968;3.134;2023-07-09T03:51:36;39.97;;;36.00;;
18104;SDS011;9179;50.968;3.134;2023-07-09T03:54:04;39.92;;;36.05;;
18104;SDS011;9179;50.968;3.134;2023-07-09T03:56:32;39.70;;;35.83;;
18104;SDS011;9179;50.968;3.134;2023-07-09T03:58:59;40.60;;;36.65;;
18104;SDS011;9179;50.968;3.134;2023-07-09T04:01:26;40.75;;;36.60;;
18104;SDS011;9179;50.968;3.134;2023-07-09T04:03:53;42.17;;;37.75;;
18104;SDS011;9179;50.968;3.134;2023-07-09T04:06:19;42.58;;;37.95;;
18104;SDS011;9179;50.968;3.134;2023-07-09T04:08:46;42.00;;;37.67;;
18104;SDS011;9179;50.968;3.134;2023-07-09T04:11:14;42.03;;;37.72;;
18104;SDS011;9179;50.968;3.134;2023-07-09T04:13:41;42.30;;;37.20;;
18104;SDS011;9179;50.968;3.134;2023-07-09T04:16:09;41.50;;;37.47;;
18104;SDS011;9179;50.968;3.134;2023-07-09T04:18:36;41.13;;;36.90;;
18104;SDS011;9179;50.968;3.134;2023-07-09T04:21:03;43.55;;;37.65;;
18104;SDS011;9179;50.968;3.134;2023-07-09T04:23:30;42.00;;;37.83;;
18104;SDS011;9179;50.968;3.134;2023-07-09T04:25:57;41.72;;;37.65;;
18104;SDS011;9179;50.968;3.134;2023-07-09T04:28:28;44.47;;;39.97;;
18104;SDS011;9179;50.968;3.134;2023-07-09T04:30:55;44.35;;;39.45;;
18104;SDS011;9179;50.968;3.134;2023-07-09T04:33:22;41.30;;;36.95;;
18104;SDS011;9179;50.968;3.134;2023-07-09T04:35:49;42.95;;;37.42;;
18104;SDS011;9179;50.968;3.134;2023-07-09T04:38:16;40.65;;;36.42;;
18104;SDS011;9179;50.968;3.134;2023-07-09T04:40:43;39.83;;;35.78;;
18104;SDS011;9179;50.968;3.134;2023-07-09T04:43:10;36.22;;;32.42;;
18104;SDS011;9179;50.968;3.134;2023-07-09T04:45:38;31.95;;;28.80;;
18104;SDS011;9179;50.968;3.134;2023-07-09T04:48:05;32.10;;;28.52;;
18104;SDS011;9179;50.968;3.134;2023-07-09T04:50:33;31.05;;;27.77;;
18104;SDS011;9179;50.968;3.134;2023-07-09T04:53:00;29.42;;;26.27;;
18104;SDS011;9179;50.968;3.134;2023-07-09T04:55:27;26.10;;;23.38;;
18104;SDS011;9179;50.968;3.134;2023-07-09T04:57:54;25.17;;;22.58;;
18104;SDS011;9179;50.968;3.134;2023-07-09T05:00:21;24.98;;;20.63;;
18104;SDS011;9179;50.968;3.134;2023-07-09T05:02:50;23.73;;;21.08;;
18104;SDS011;9179;50.968;3.134;2023-07-09T05:05:16;23.95;;;21.35;;
18104;SDS011;9179;50.968;3.134;2023-07-09T05:07:43;24.63;;;20.00;;
18104;SDS011;9179;50.968;3.134;2023-07-09T05:10:10;20.00;;;18.08;;
18104;SDS011;9179;50.968;3.134;2023-07-09T05:12:46;22.63;;;18.92;;
18104;SDS011;9179;50.968;3.134;2023-07-09T05:15:15;21.63;;;19.33;;
18104;SDS011;9179;50.968;3.134;2023-07-09T05:17:43;21.80;;;19.60;;
18104;SDS011;9179;50.968;3.134;2023-07-09T05:20:11;18.25;;;16.45;;
18104;SDS011;9179;50.968;3.134;2023-07-09T05:22:39;17.25;;;15.45;;
18104;SDS011;9179;50.968;3.134;2023-07-09T05:25:06;15.48;;;13.90;;
18104;SDS011;9179;50.968;3.134;2023-07-09T05:27:33;15.05;;;13.32;;
18104;SDS011;9179;50.968;3.134;2023-07-09T05:30:00;15.15;;;13.65;;
18104;SDS011;9179;50.968;3.134;2023-07-09T05:32:27;14.25;;;12.43;;
18104;SDS011;9179;50.968;3.134;2023-07-09T05:34:54;16.67;;;12.50;;
18104;SDS011;9179;50.968;3.134;2023-07-09T05:37:22;12.95;;;11.60;;
18104;SDS011;9179;50.968;3.134;2023-07-09T05:39:49;13.88;;;12.55;;
18104;SDS011;9179;50.968;3.134;2023-07-09T05:42:16;12.32;;;11.05;;
18104;SDS011;9179;50.968;3.134;2023-07-09T05:44:43;11.02;;;9.90;;
18104;SDS011;9179;50.968;3.134;2023-07-09T05:47:10;9.73;;;8.73;;
18104;SDS011;9179;50.968;3.134;2023-07-09T05:49:37;10.10;;;9.18;;
18104;SDS011;9179;50.968;3.134;2023-07-09T05:52:04;11.23;;;9.40;;
18104;SDS011;9179;50.968;3.134;2023-07-09T05:54:33;11.75;;;9.25;;
18104;SDS011;9179;50.968;3.134;2023-07-09T05:57:00;8.85;;;8.05;;
18104;SDS011;9179;50.968;3.134;2023-07-09T05:59:27;10.25;;;9.25;;
18104;SDS011;9179;50.968;3.134;2023-07-09T06:01:54;11.45;;;8.93;;
18104;SDS011;9179;50.968;3.134;2023-07-09T06:04:21;11.93;;;9.07;;
18104;SDS011;9179;50.968;3.134;2023-07-09T06:06:50;10.32;;;9.18;;
18104;SDS011;9179;50.968;3.134;2023-07-09T06:09:17;10.10;;;9.18;;
18104;SDS011;9179;50.968;3.134;2023-07-09T06:11:45;13.85;;;9.20;;
18104;SDS011;9179;50.968;3.134;2023-07-09T06:14:12;9.43;;;8.55;;
18104;SDS011;9179;50.968;3.134;2023-07-09T06:16:39;9.52;;;7.60;;
18104;SDS011;9179;50.968;3.134;2023-07-09T06:19:05;8.75;;;8.00;;
18104;SDS011;9179;50.968;3.134;2023-07-09T06:21:33;8.65;;;7.85;;
18104;SDS011;9179;50.968;3.134;2023-07-09T06:24:00;8.23;;;6.43;;
18104;SDS011;9179;50.968;3.134;2023-07-09T06:26:26;8.02;;;6.97;;
18104;SDS011;9179;50.968;3.134;2023-07-09T06:28:55;7.47;;;6.78;;
18104;SDS011;9179;50.968;3.134;2023-07-09T06:31:22;8.57;;;6.90;;
18104;SDS011;9179;50.968;3.134;2023-07-09T06:33:49;6.90;;;6.20;;
18104;SDS011;9179;50.968;3.134;2023-07-09T06:36:16;9.70;;;6.47;;
18104;SDS011;9179;50.968;3.134;2023-07-09T06:38:44;9.63;;;6.97;;
18104;SDS011;9179;50.968;3.134;2023-07-09T06:41:11;8.18;;;7.35;;
18104;SDS011;9179;50.968;3.134;2023-07-09T06:43:38;8.55;;;7.40;;
18104;SDS011;9179;50.968;3.134;2023-07-09T06:46:07;9.00;;;6.78;;
18104;SDS011;9179;50.968;3.134;2023-07-09T06:48:37;8.77;;;7.43;;
18104;SDS011;9179;50.968;3.134;2023-07-09T06:51:04;8.15;;;7.07;;
18104;SDS011;9179;50.968;3.134;2023-07-09T06:53:31;7.88;;;7.18;;
18104;SDS011;9179;50.968;3.134;2023-07-09T06:55:58;8.05;;;6.68;;
18104;SDS011;9179;50.968;3.134;2023-07-09T06:58:25;6.18;;;5.38;;
18104;SDS011;9179;50.968;3.134;2023-07-09T07:00:53;6.13;;;5.63;;
18104;SDS011;9179;50.968;3.134;2023-07-09T07:03:22;7.45;;;6.38;;
18104;SDS011;9179;50.968;3.134;2023-07-09T07:05:51;7.15;;;6.55;;
18104;SDS011;9179;50.968;3.134;2023-07-09T07:08:20;7.82;;;6.18;;
18104;SDS011;9179;50.968;3.134;2023-07-09T07:10:49;8.40;;;6.00;;
18104;SDS011;9179;50.968;3.134;2023-07-09T07:13:17;6.10;;;5.55;;
18104;SDS011;9179;50.968;3.134;2023-07-09T07:15:47;6.75;;;6.13;;
18104;SDS011;9179;50.968;3.134;2023-07-09T07:18:14;6.53;;;5.88;;
18104;SDS011;9179;50.968;3.134;2023-07-09T07:20:43;8.35;;;6.43;;
18104;SDS011;9179;50.968;3.134;2023-07-09T07:23:10;7.45;;;6.68;;
18104;SDS011;9179;50.968;3.134;2023-07-09T07:25:37;8.50;;;6.35;;
18104;SDS011;9179;50.968;3.134;2023-07-09T07:28:04;6.90;;;6.30;;
18104;SDS011;9179;50.968;3.134;2023-07-09T07:30:31;9.93;;;7.30;;
18104;SDS011;9179;50.968;3.134;2023-07-09T07:32:58;7.70;;;6.85;;
18104;SDS011;9179;50.968;3.134;2023-07-09T07:35:25;8.10;;;6.75;;
18104;SDS011;9179;50.968;3.134;2023-07-09T07:37:54;7.10;;;6.40;;
18104;SDS011;9179;50.968;3.134;2023-07-09T07:40:21;8.32;;;6.95;;
18104;SDS011;9179;50.968;3.134;2023-07-09T07:42:48;7.68;;;5.95;;
18104;SDS011;9179;50.968;3.134;2023-07-09T07:45:15;8.05;;;7.25;;
18104;SDS011;9179;50.968;3.134;2023-07-09T07:47:41;8.38;;;7.57;;
18104;SDS011;9179;50.968;3.134;2023-07-09T07:50:09;8.40;;;6.78;;
18104;SDS011;9179;50.968;3.134;2023-07-09T07:52:36;7.32;;;6.55;;
18104;SDS011;9179;50.968;3.134;2023-07-09T07:55:05;8.48;;;6.47;;
18104;SDS011;9179;50.968;3.134;2023-07-09T07:57:32;6.25;;;5.65;;
18104;SDS011;9179;50.968;3.134;2023-07-09T08:00:00;6.47;;;5.85;;
18104;SDS011;9179;50.968;3.134;2023-07-09T08:02:28;7.40;;;5.88;;
18104;SDS011;9179;50.968;3.134;2023-07-09T08:04:55;6.88;;;6.18;;
18104;SDS011;9179;50.968;3.134;2023-07-09T08:07:22;6.63;;;6.00;;
18104;SDS011;9179;50.968;3.134;2023-07-09T08:09:48;10.90;;;6.15;;
18104;SDS011;9179;50.968;3.134;2023-07-09T08:12:17;7.53;;;6.07;;
18104;SDS011;9179;50.968;3.134;2023-07-09T08:14:44;6.75;;;5.63;;
18104;SDS011;9179;50.968;3.134;2023-07-09T08:17:11;6.90;;;5.07;;
18104;SDS011;9179;50.968;3.134;2023-07-09T08:19:44;12.23;;;6.05;;
18104;SDS011;9179;50.968;3.134;2023-07-09T08:22:13;7.78;;;4.65;;
18104;SDS011;9179;50.968;3.134;2023-07-09T08:24:40;5.93;;;5.15;;
18104;SDS011;9179;50.968;3.134;2023-07-09T08:27:08;8.00;;;6.20;;
18104;SDS011;9179;50.968;3.134;2023-07-09T08:29:37;5.35;;;4.85;;
18104;SDS011;9179;50.968;3.134;2023-07-09T08:32:05;5.97;;;5.15;;
18104;SDS011;9179;50.968;3.134;2023-07-09T08:34:32;6.15;;;5.50;;
18104;SDS011;9179;50.968;3.134;2023-07-09T08:36:59;5.43;;;4.97;;
18104;SDS011;9179;50.968;3.134;2023-07-09T08:39:26;4.50;;;4.10;;
18104;SDS011;9179;50.968;3.134;2023-07-09T08:41:54;6.50;;;5.22;;
18104;SDS011;9179;50.968;3.134;2023-07-09T08:44:29;5.18;;;4.68;;
18104;SDS011;9179;50.968;3.134;2023-07-09T08:47:07;6.85;;;4.75;;
18104;SDS011;9179;50.968;3.134;2023-07-09T08:49:43;7.38;;;4.60;;
18104;SDS011;9179;50.968;3.134;2023-07-09T08:52:17;4.72;;;3.83;;
18104;SDS011;9179;50.968;3.134;2023-07-09T08:54:51;4.68;;;3.88;;
18104;SDS011;9179;50.968;3.134;2023-07-09T08:57:21;7.35;;;4.40;;
18104;SDS011;9179;50.968;3.134;2023-07-09T08:59:53;6.10;;;3.67;;
18104;SDS011;9179;50.968;3.134;2023-07-09T09:02:30;7.40;;;4.50;;
18104;SDS011;9179;50.968;3.134;2023-07-09T09:05:02;6.20;;;3.92;;
18104;SDS011;9179;50.968;3.134;2023-07-09T09:07:38;5.72;;;3.92;;
18104;SDS011;9179;50.968;3.134;2023-07-09T09:10:08;6.13;;;4.68;;
18104;SDS011;9179;50.968;3.134;2023-07-09T09:12:40;7.22;;;4.18;;
18104;SDS011;9179;50.968;3.134;2023-07-09T09:15:14;5.57;;;3.90;;
18104;SDS011;9179;50.968;3.134;2023-07-09T09:17:44;4.22;;;3.40;;
18104;SDS011;9179;50.968;3.134;2023-07-09T09:20:16;4.93;;;4.10;;
18104;SDS011;9179;50.968;3.134;2023-07-09T09:22:48;6.70;;;4.10;;
18104;SDS011;9179;50.968;3.134;2023-07-09T09:25:21;4.93;;;4.40;;
18104;SDS011;9179;50.968;3.134;2023-07-09T09:27:52;5.05;;;4.55;;
18104;SDS011;9179;50.968;3.134;2023-07-09T09:30:21;5.35;;;4.45;;
18104;SDS011;9179;50.968;3.134;2023-07-09T09:32:50;6.60;;;5.13;;
18104;SDS011;9179;50.968;3.134;2023-07-09T09:35:24;7.45;;;5.28;;
18104;SDS011;9179;50.968;3.134;2023-07-09T09:37:53;6.50;;;5.30;;
18104;SDS011;9179;50.968;3.134;2023-07-09T09:40:22;6.20;;;5.60;;
18104;SDS011;9179;50.968;3.134;2023-07-09T09:42:50;6.10;;;5.50;;
18104;SDS011;9179;50.968;3.134;2023-07-09T09:45:21;7.50;;;6.45;;
18104;SDS011;9179;50.968;3.134;2023-07-09T09:47:51;6.97;;;6.18;;
18104;SDS011;9179;50.968;3.134;2023-07-09T09:50:19;9.70;;;6.82;;
18104;SDS011;9179;50.968;3.134;2023-07-09T09:52:47;8.82;;;7.93;;
18104;SDS011;9179;50.968;3.134;2023-07-09T09:55:16;8.82;;;7.93;;
18104;SDS011;9179;50.968;3.134;2023-07-09T09:57:48;9.80;;;8.32;;
18104;SDS011;9179;50.968;3.134;2023-07-09T10:00:16;10.27;;;9.27;;
18104;SDS011;9179;50.968;3.134;2023-07-09T10:02:45;18.20;;;10.50;;
18104;SDS011;9179;50.968;3.134;2023-07-09T10:05:13;12.88;;;11.57;;
18104;SDS011;9179;50.968;3.134;2023-07-09T10:07:43;13.00;;;11.40;;
18104;SDS011;9179;50.968;3.134;2023-07-09T10:10:17;16.77;;;14.15;;
18104;SDS011;9179;50.968;3.134;2023-07-09T10:12:48;16.55;;;12.48;;
18104;SDS011;9179;50.968;3.134;2023-07-09T10:15:21;13.57;;;12.30;;
18104;SDS011;9179;50.968;3.134;2023-07-09T10:18:00;14.60;;;12.95;;
18104;SDS011;9179;50.968;3.134;2023-07-09T10:20:32;16.00;;;14.30;;
18104;SDS011;9179;50.968;3.134;2023-07-09T10:23:03;16.25;;;14.63;;
18104;SDS011;9179;50.968;3.134;2023-07-09T10:25:40;15.15;;;13.55;;
18104;SDS011;9179;50.968;3.134;2023-07-09T10:28:17;19.58;;;14.50;;
18104;SDS011;9179;50.968;3.134;2023-07-09T10:30:59;16.00;;;14.25;;
18104;SDS011;9179;50.968;3.134;2023-07-09T10:33:38;15.35;;;13.82;;
18104;SDS011;9179;50.968;3.134;2023-07-09T10:36:16;16.08;;;14.48;;
18104;SDS011;9179;50.968;3.134;2023-07-09T10:39:00;15.20;;;13.18;;
18104;SDS011;9179;50.968;3.134;2023-07-09T10:41:32;14.57;;;13.05;;
18104;SDS011;9179;50.968;3.134;2023-07-09T10:44:04;14.15;;;12.68;;
18104;SDS011;9179;50.968;3.134;2023-07-09T10:46:37;12.98;;;11.65;;
18104;SDS011;9179;50.968;3.134;2023-07-09T10:49:10;12.45;;;11.27;;
18104;SDS011;9179;50.968;3.134;2023-07-09T10:51:39;11.73;;;10.57;;
18104;SDS011;9179;50.968;3.134;2023-07-09T10:54:10;10.85;;;9.75;;
18104;SDS011;9179;50.968;3.134;2023-07-09T10:56:45;11.13;;;9.60;;
18104;SDS011;9179;50.968;3.134;2023-07-09T10:59:20;9.27;;;8.38;;
18104;SDS011;9179;50.968;3.134;2023-07-09T11:01:52;9.23;;;8.43;;
18104;SDS011;9179;50.968;3.134;2023-07-09T11:04:27;9.55;;;8.48;;
18104;SDS011;9179;50.968;3.134;2023-07-09T11:06:59;9.75;;;8.20;;
18104;SDS011;9179;50.968;3.134;2023-07-09T11:09:30;8.48;;;7.13;;
18104;SDS011;9179;50.968;3.134;2023-07-09T11:12:01;8.10;;;7.40;;
18104;SDS011;9179;50.968;3.134;2023-07-09T11:14:33;8.38;;;7.63;;
18104;SDS011;9179;50.968;3.134;2023-07-09T11:17:04;8.13;;;7.32;;
18104;SDS011;9179;50.968;3.134;2023-07-09T11:19:42;8.50;;;6.85;;
18104;SDS011;9179;50.968;3.134;2023-07-09T11:22:14;8.60;;;7.72;;
18104;SDS011;9179;50.968;3.134;2023-07-09T11:24:47;8.90;;;7.63;;
18104;SDS011;9179;50.968;3.134;2023-07-09T11:27:20;8.00;;;7.30;;
18104;SDS011;9179;50.968;3.134;2023-07-09T11:29:49;9.57;;;7.25;;
18104;SDS011;9179;50.968;3.134;2023-07-09T11:32:24;7.72;;;6.90;;
18104;SDS011;9179;50.968;3.134;2023-07-09T11:34:53;8.43;;;7.63;;
18104;SDS011;9179;50.968;3.134;2023-07-09T11:37:31;9.32;;;8.45;;
18104;SDS011;9179;50.968;3.134;2023-07-09T11:40:02;9.07;;;8.10;;
18104;SDS011;9179;50.968;3.134;2023-07-09T11:42:46;9.10;;;8.20;;
18104;SDS011;9179;50.968;3.134;2023-07-09T11:45:16;7.90;;;7.28;;
18104;SDS011;9179;50.968;3.134;2023-07-09T11:47:47;10.25;;;7.57;;
18104;SDS011;9179;50.968;3.134;2023-07-09T11:50:23;8.15;;;7.25;;
18104;SDS011;9179;50.968;3.134;2023-07-09T11:52:54;9.10;;;7.53;;
18104;SDS011;9179;50.968;3.134;2023-07-09T11:55:27;7.68;;;6.90;;
18104;SDS011;9179;50.968;3.134;2023-07-09T11:57:59;8.82;;;7.38;;
18104;SDS011;9179;50.968;3.134;2023-07-09T12:00:30;7.18;;;6.25;;
18104;SDS011;9179;50.968;3.134;2023-07-09T12:03:06;8.25;;;7.00;;
18104;SDS011;9179;50.968;3.134;2023-07-09T12:05:39;8.25;;;7.45;;
18104;SDS011;9179;50.968;3.134;2023-07-09T12:08:11;7.30;;;6.60;;
18104;SDS011;9179;50.968;3.134;2023-07-09T12:10:40;7.93;;;7.22;;
18104;SDS011;9179;50.968;3.134;2023-07-09T12:13:08;9.88;;;6.40;;
18104;SDS011;9179;50.968;3.134;2023-07-09T12:15:38;8.88;;;7.13;;
18104;SDS011;9179;50.968;3.134;2023-07-09T12:18:09;8.05;;;7.28;;
18104;SDS011;9179;50.968;3.134;2023-07-09T12:20:39;8.65;;;6.90;;
18104;SDS011;9179;50.968;3.134;2023-07-09T12:23:11;10.82;;;6.75;;
18104;SDS011;9179;50.968;3.134;2023-07-09T12:25:47;7.57;;;6.93;;
18104;SDS011;9179;50.968;3.134;2023-07-09T12:28:14;10.60;;;7.30;;
18104;SDS011;9179;50.968;3.134;2023-07-09T12:30:44;7.75;;;6.53;;
18104;SDS011;9179;50.968;3.134;2023-07-09T12:33:12;7.75;;;6.85;;
18104;SDS011;9179;50.968;3.134;2023-07-09T12:35:44;7.82;;;6.78;;
18104;SDS011;9179;50.968;3.134;2023-07-09T12:38:15;7.90;;;6.32;;
18104;SDS011;9179;50.968;3.134;2023-07-09T12:40:45;8.13;;;6.68;;
18104;SDS011;9179;50.968;3.134;2023-07-09T12:43:13;6.78;;;6.03;;
18104;SDS011;9179;50.968;3.134;2023-07-09T12:45:43;7.80;;;5.97;;
18104;SDS011;9179;50.968;3.134;2023-07-09T12:48:10;7.55;;;6.50;;
18104;SDS011;9179;50.968;3.134;2023-07-09T12:50:39;7.57;;;6.65;;
18104;SDS011;9179;50.968;3.134;2023-07-09T12:53:13;9.15;;;5.78;;
18104;SDS011;9179;50.968;3.134;2023-07-09T12:55:42;9.20;;;6.40;;
18104;SDS011;9179;50.968;3.134;2023-07-09T12:58:15;7.70;;;6.90;;
18104;SDS011;9179;50.968;3.134;2023-07-09T13:00:47;7.47;;;6.78;;
18104;SDS011;9179;50.968;3.134;2023-07-09T13:03:16;7.38;;;6.72;;
18104;SDS011;9179;50.968;3.134;2023-07-09T13:05:53;8.93;;;7.53;;
18104;SDS011;9179;50.968;3.134;2023-07-09T13:08:23;8.77;;;7.00;;
18104;SDS011;9179;50.968;3.134;2023-07-09T13:10:51;10.63;;;7.93;;
18104;SDS011;9179;50.968;3.134;2023-07-09T13:13:20;8.68;;;7.78;;
18104;SDS011;9179;50.968;3.134;2023-07-09T13:15:48;7.75;;;7.05;;
18104;SDS011;9179;50.968;3.134;2023-07-09T13:18:22;6.90;;;6.28;;
18104;SDS011;9179;50.968;3.134;2023-07-09T13:20:49;7.25;;;6.65;;
18104;SDS011;9179;50.968;3.134;2023-07-09T13:23:18;7.20;;;6.60;;
18104;SDS011;9179;50.968;3.134;2023-07-09T13:25:47;6.82;;;6.13;;
18104;SDS011;9179;50.968;3.134;2023-07-09T13:28:15;6.32;;;5.75;;
18104;SDS011;9179;50.968;3.134;2023-07-09T13:30:44;6.65;;;5.85;;
18104;SDS011;9179;50.968;3.134;2023-07-09T13:33:11;6.13;;;5.47;;
18104;SDS011;9179;50.968;3.134;2023-07-09T13:35:39;5.72;;;4.40;;
18104;SDS011;9179;50.968;3.134;2023-07-09T13:38:11;5.63;;;4.88;;
18104;SDS011;9179;50.968;3.134;2023-07-09T13:40:40;5.30;;;4.80;;
18104;SDS011;9179;50.968;3.134;2023-07-09T13:43:12;5.00;;;4.57;;
18104;SDS011;9179;50.968;3.134;2023-07-09T13:45:39;5.65;;;4.20;;
18104;SDS011;9179;50.968;3.134;2023-07-09T13:48:09;3.13;;;2.83;;
18104;SDS011;9179;50.968;3.134;2023-07-09T13:50:41;2.33;;;2.13;;
18104;SDS011;9179;50.968;3.134;2023-07-09T13:53:11;5.75;;;2.70;;
18104;SDS011;9179;50.968;3.134;2023-07-09T13:55:42;5.72;;;3.53;;
18104;SDS011;9179;50.968;3.134;2023-07-09T13:58:09;4.35;;;3.28;;
18104;SDS011;9179;50.968;3.134;2023-07-09T14:00:39;4.00;;;2.97;;
18104;SDS011;9179;50.968;3.134;2023-07-09T14:03:07;5.90;;;4.05;;
18104;SDS011;9179;50.968;3.134;2023-07-09T14:05:40;4.40;;;3.22;;
18104;SDS011;9179;50.968;3.134;2023-07-09T14:08:07;3.85;;;3.13;;
18104;SDS011;9179;50.968;3.134;2023-07-09T14:10:35;3.53;;;3.17;;
18104;SDS011;9179;50.968;3.134;2023-07-09T14:13:02;4.88;;;3.33;;
18104;SDS011;9179;50.968;3.134;2023-07-09T14:15:31;4.63;;;3.17;;
18104;SDS011;9179;50.968;3.134;2023-07-09T14:17:58;5.10;;;2.58;;
18104;SDS011;9179;50.968;3.134;2023-07-09T14:20:25;4.78;;;3.03;;
18104;SDS011;9179;50.968;3.134;2023-07-09T14:22:52;4.15;;;2.53;;
18104;SDS011;9179;50.968;3.134;2023-07-09T14:25:20;3.47;;;2.60;;
18104;SDS011;9179;50.968;3.134;2023-07-09T14:27:49;3.35;;;2.78;;
18104;SDS011;9179;50.968;3.134;2023-07-09T14:30:18;4.07;;;2.72;;
18104;SDS011;9179;50.968;3.134;2023-07-09T14:32:48;3.53;;;2.95;;
18104;SDS011;9179;50.968;3.134;2023-07-09T14:35:17;3.40;;;2.22;;
18104;SDS011;9179;50.968;3.134;2023-07-09T14:37:46;3.45;;;2.10;;
18104;SDS011;9179;50.968;3.134;2023-07-09T14:40:14;8.02;;;2.60;;
18104;SDS011;9179;50.968;3.134;2023-07-09T14:42:43;4.15;;;2.53;;
18104;SDS011;9179;50.968;3.134;2023-07-09T14:45:17;4.72;;;2.30;;
18104;SDS011;9179;50.968;3.134;2023-07-09T14:47:48;3.83;;;2.05;;
18104;SDS011;9179;50.968;3.134;2023-07-09T14:50:15;2.80;;;2.22;;
18104;SDS011;9179;50.968;3.134;2023-07-09T14:52:43;4.25;;;2.00;;
18104;SDS011;9179;50.968;3.134;2023-07-09T14:55:15;1.98;;;1.77;;
18104;SDS011;9179;50.968;3.134;2023-07-09T14:57:44;4.07;;;1.77;;
18104;SDS011;9179;50.968;3.134;2023-07-09T15:00:14;2.53;;;1.92;;